JSY weather

Syros Airport
Syros Island, Cyclades, Greece

Public forecast

Using degrees Celsius for public forecast. Weather courtesy of forecast.io.

METAR (pilot weather report)

Retrieved 2018/06/21 17:50 UTC (1 hour ago):

LGSO 211750Z 00000KT CAVOK 24/18 Q1014

TAF (pilot weather forecast)

Forecast is more than 12 hours old.

Closest forecast is Mikonos Airport, 19.0 nm (35.1 km) E. Retrieved 2012/09/27 00:18 UTC (6 years ago):

TAF TAF LGMK 272300Z 2800/2909 36016KT 9999 FEW020